Startpagina
METAR-TAF:

METAR-TAF

Vliegvelden :

Victoria, Mahé, Seychellen

Luchthaven Seychellen

breedte: 04-40S, lengte: 055-31E, hoogte: 3 m

Actueel weer

Dit bericht is 36 minuten geleden gemaakt, om 06:00 UTC
Wind 15 kt uit het zuidoosten
Temperatuur 27°C
Vochtigheid 84%
Druk 1012 hPa
Zicht 10 km of meer
Weinig wolken op 1500 ft

METAR: FSIA 220600Z 14015KT 9999 FEW015 27/24 Q1012 NOSIG

Tijdstip: 10:36 (06:36 UTC)

Verwachting

Dit bericht is 1 uur en het 36 minuten geleden gemaakt, om 05:00 UTC
Verwachting geldig van 22 om 06 UTC tot 23 om 06 UTC
Wind 15 kt uit het zuidzuidoosten
Zicht 10 km of meer
Verspreide wolken op 1600 ft
Tijdelijke
van 22 om 06 UTC tot 22 om 15 UTC
Gebroken wolken op 1500 ft
lichte regenbuien

TAF: FSIA 220500Z 2206/2306 15015KT 9999 SCT016 TEMPO 2206/2215 -SHRA BKN015

Waarnemingen en weersverwachtingen van meer dan 4000 vliegvelden (METAR en TAF).

De beschikbare stations zijn de gele en rode punten op de kaart.

Ga met uw muis naar het station om de naam te zien.

Klik dan om waarnemingen en weersverwachtingen te zien.

kaart wijzigen: klik op de groene knoppen met een zwart kruis om in te zoomen, op de groene knop met een streepje om uit te zoomen of op de groene pijlen voor aangrenzende kaarten.


METAR-TAF: